Terminal Aerodrome Forecast
Issued by NWS

Home | Current Version | Previous Version | Graphics & Text | Print | Product List | Glossary On
Versions: 1 2 3 4 5 6 7 8 9 10 11 12
061
FTUS43 KABR 160520
TAFMBG
TAF
KMBG 160520Z 1606/1706 13008KT P6SM BKN200
     FM161300 29004KT P6SM SCT250
     FM162000 32008KT P6SM FEW250=

USA.gov is the U.S. government's official web portal to all federal, state and local government web resources and services.